Hlavní strana
METAR-TAF:

METAR-TAF

Letiště :

Yaoundé, Kamerun

zeměpisná šířka: 03-50N, zeměpisná délka: 011-31E, výška: 751 m

Aktuální stav počasí

Zpráva byla vytvořena před 47 minutami, v 16:00 UTC
Východní vítr 5 kt, proměnlivý mezi východoseverovýchodním a jihovýchodním
Teplota 32°C
Vlhkost vzduchu 34%
Tlak 1012 hPa
Viditelnost: 6000 m

METAR: FKYS 221600Z 10005KT 060V140 6000 NSC 32/14 Q1012 NOSIG

Čas: 17:47 (16:47 UTC)

Předpověď počasí

Zpráva byla vytvořena před 5 hodinami a 47 minutami, v 11:00 UTC
Předpověď platná od 22 v 12 UTC do 23 v 12 UTC
vítr z různých směrů 5 kt
Viditelnost: 4000 m
Polojasno ve výšce 1600 ft
zákal
Změna
od 22 v 14 UTC do 22 v 16 UTC
Viditelnost: 6000 m
Změna
od 23 v 00 UTC do 23 v 02 UTC
Oblačno až skoro zataženo ve výšce 600 ft

TAF: FKYS 221100Z 2212/2312 VRB05KT 4000 HZ SCT016 BECMG 2214/2216 6000 BECMG 2300/2302 BKN006

Stav a předpovědi počasí z více než 4 000 letišť (zprávy METAR a TAF).

Červené a žluté tečky na mapě představují dostupné meteorologické stanice.

Když kurzor umístíte na tečku, zobrazí se název stanice.

Pak kliknutím zobrazíte stav a předpověď počasí.

Chcete-li změnit mapu, kliknutím na zelené tlačítko se znaménkem +mapu přiblížíte, kliknutím na zelené tlačítko se znaménkem – mapu oddálíte a kliknutím na zelené šipky přejdete na sousední mapy.


METAR-TAF: